INTERACTIVE WEATHER
 METAR AND TAF INFORMATION
METAR FOR K54J
ADDS - METARS form results

(2021 UTC 22 April 2019)
Data provider http://aviationweather.gov/metar/data/
 
METAR text: K54J 222015Z AUTO 20003KT 10SM CLR 27/06 A3016 RMK AO2 T02670061
Conditions at: K54J (DE FUNIAK SPRNGS, FL, US) observed 2015 UTC 22 April 2019
Temperature: 26.7°C (80°F)
Dewpoint: 6.1°C (43°F) [RH = 27%]
Pressure (altimeter): 30.16 inches Hg (1021.4 mb)
Winds: from the SSW (200 degrees) at 3 MPH (3 knots; 1.5 m/s)
Visibility: 10 or more miles (16+ km)
Ceiling: at least 12,000 feet AGL
Clouds: sky clear below 12,000 feet AGL
Weather: automated observation with no human augmentation;
there may or may not be significant weather present at this time

METAR text: K54J 221955Z AUTO 31004KT 10SM CLR 27/07 A3017 RMK AO2 T02650065
Conditions at: K54J (DE FUNIAK SPRNGS, FL, US) observed 1955 UTC 22 April 2019
Temperature: 26.5°C (80°F)
Dewpoint: 6.5°C (44°F) [RH = 28%]
Pressure (altimeter): 30.17 inches Hg (1021.8 mb)
Winds: from the NW (310 degrees) at 5 MPH (4 knots; 2.1 m/s)
Visibility: 10 or more miles (16+ km)
Ceiling: at least 12,000 feet AGL
Clouds: sky clear below 12,000 feet AGL
Weather: automated observation with no human augmentation;
there may or may not be significant weather present at this time

METAR text: K54J 221935Z AUTO 00000KT 10SM CLR 27/06 A3017 RMK AO2 T02660062
Conditions at: K54J (DE FUNIAK SPRNGS, FL, US) observed 1935 UTC 22 April 2019
Temperature: 26.6°C (80°F)
Dewpoint: 6.2°C (43°F) [RH = 27%]
Pressure (altimeter): 30.17 inches Hg (1021.8 mb)
Winds: calm
Visibility: 10 or more miles (16+ km)
Ceiling: at least 12,000 feet AGL
Clouds: sky clear below 12,000 feet AGL
Weather: automated observation with no human augmentation;
there may or may not be significant weather present at this time

 AIRPORT MAP

 RUNWAY INFORMATION
Runway 09 Runway length 4100 ft Runway width 60 ft
Runway elevation 288 ft Runway displaced threshold 0 ft Runway heading 90
Runway 27 Runway length 4100 ft Runway width 60 ft
Runway elevation 272 ft Runway displaced threshold 0 ft Runway heading 270
Runway 18 Runway length 2700 ft Runway width 50 ft
Runway elevation 283 ft Runway displaced threshold 165 ft Runway heading 180
Runway 36 Runway length 2700 ft Runway width 50 ft
Runway elevation 270 ft Runway displaced threshold 400 ft Runway heading 360

 AIRPORT FREQUENCIES
Type UNIC Name CTAF/UNICO Frequency 122.8 MHZ

 AIRPORT NEAR NAVIGATION AIDS

Neither the Department of the Army, nor any other component of the Department of Defense or Federal Government has approved, endorsed, or authorized this promotion, activity, or organization. Virtual United States Army Aviation organization is in no way affiliated with the Department of Defense, Department of the Army, or any other federal or government entity. Virtual United States Army Aviation is a group of flight simulation enthusiasts with the common interest of promoting enjoyment and cameraderie through the simulation of military operations and procedures utilizing several flight simulation platforms.

Copyright © vUSAA 2017-2019 All Rights Reserved